This is the latest recevied weather packets stored in our database for station/object KK4JIV-13. If no packets are shown the sender has not sent any weather packets the latest 1 day(s).
| Time | Temp. | Humidity | Pressure | Rain* | Wind** | Luminosity | Snow |
|---|---|---|---|---|---|---|---|
| 1777999708 | 28.89° C | 51% | 1016 hPa | 0 mm | 1.34 m/s, 320° | 766 W/m² | - |
| 1777999405 | 28.33° C | 52% | 1016.1 hPa | 0 mm | 0 m/s | 853 W/m² | - |
| 1777999103 | 27.78° C | 53% | 1016 hPa | 0 mm | 0.45 m/s, 55° | 245 W/m² | - |
| 1777998802 | 27.78° C | 53% | 1016.1 hPa | 0 mm | 0.45 m/s, 18° | 238 W/m² | - |
| 1777998499 | 27.78° C | 54% | 1016.1 hPa | 0 mm | 0 m/s | 283 W/m² | - |
| 1777998195 | 29.44° C | 50% | 1016.1 hPa | 0 mm | 0.89 m/s, 150° | 237 W/m² | - |
| 1777997893 | 29.44° C | 52% | 1016.1 hPa | 0 mm | 0.45 m/s, 51° | 429 W/m² | - |
| 1777997590 | 27.78° C | 53% | 1016.1 hPa | 0 mm | 0 m/s | 893 W/m² | - |
| 1777997287 | 27.78° C | 55% | 1016.2 hPa | 0 mm | 0.45 m/s, 339° | 338 W/m² | - |
| 1777996985 | 27.22° C | 55% | 1016.1 hPa | 0 mm | 0 m/s | 230 W/m² | - |
| 1777996682 | 27.22° C | 57% | 1016.4 hPa | 0 mm | 0 m/s | 199 W/m² | - |
| 1777996377 | 28.33° C | 57% | 1016.4 hPa | 0 mm | 1.79 m/s, 119° | 229 W/m² | - |
| 1777996074 | 28.33° C | 54% | 1016.2 hPa | 0 mm | 0.45 m/s, 145° | 271 W/m² | - |
| 1777995770 | 29.44° C | 50% | 1016.2 hPa | 0 mm | 0.45 m/s, 227° | 807 W/m² | - |
| 1777995467 | 28.33° C | 53% | 1016.2 hPa | 0 mm | 0.89 m/s, 66° | 771 W/m² | - |
| 1777995164 | 28.33° C | 53% | 1016.2 hPa | 0 mm | 0.89 m/s, 87° | 770 W/m² | - |
| 1777994861 | 28.33° C | 56% | 1016.5 hPa | 0 mm | 0.89 m/s, 85° | 780 W/m² | - |
| 1777994557 | 27.78° C | 58% | 1016.3 hPa | 0 mm | 0.89 m/s, 70° | 230 W/m² | - |
| 1777994251 | 27.78° C | 52% | 1016.2 hPa | 0 mm | 1.34 m/s, 169° | 789 W/m² | - |
| 1777993949 | 27.22° C | 57% | 1016 hPa | 0 mm | 0 m/s | 781 W/m² | - |
| 1777993647 | 26.67° C | 60% | 1016.2 hPa | 0 mm | 1.34 m/s, 94° | 672 W/m² | - |
| 1777993344 | 26.67° C | 58% | 1016.2 hPa | 0 mm | 1.34 m/s, 88° | 764 W/m² | - |
| 1777993046 | 27.78° C | 60% | 1016.4 hPa | 0 mm | 0.89 m/s, 190° | 738 W/m² | - |
| 1777992742 | 27.22° C | 60% | 1016.3 hPa | 0 mm | 0 m/s | 638 W/m² | - |
| 1777992439 | 26.11° C | 64% | 1016.2 hPa | 0 mm | 0.45 m/s, 90° | 662 W/m² | - |
* Rain latest hour (hover to see other rain measurements)
** Current wind speed in m/s (hover to see current wind gust speed)